Terminal Aerodrome Forecast
Issued by NWS Upton, NY

Home | Current Version | Previous Version | Text Only | Print | Product List | Glossary On
Versions: 1 2 3 4 5 6 7 8 9 10 11 12 13 14 15 16 17 18 19 20 21 22 23 24 25 26 27 28 29 30 31 32 33 34 35 36 37
000
FTUS41 KOKX 212105 AAB
TAFEWR
TAF AMD
KEWR 212105Z 2121/2224 27012G17KT P6SM FEW060 BKN250
     FM212300 27006KT P6SM FEW060
     FM220200 VRB03KT P6SM FEW060
     FM220700 34004KT P6SM SCT060
     FM221200 VRB04KT P6SM FEW060
     FM222000 14006KT P6SM SCT050 BKN200=

USA.gov is the U.S. government's official web portal to all federal, state and local government web resources and services.